createdAt,value
2022-10-13T00:00:49.053Z,9.31
2022-10-13T00:04:46.717Z,9.31
2022-10-13T00:08:47.225Z,9.31
2022-10-13T00:12:47.160Z,9.31
2022-10-13T00:16:47.156Z,9.31
2022-10-13T00:20:47.211Z,9.31
2022-10-13T00:24:46.671Z,9.31
2022-10-13T00:28:52.285Z,9.31
2022-10-13T00:32:46.783Z,9.31
2022-10-13T00:36:46.810Z,9.31
2022-10-13T00:40:46.487Z,10.4
2022-10-13T00:44:47.202Z,10.4
2022-10-13T00:48:46.444Z,10.4
2022-10-13T00:52:46.995Z,10.4
2022-10-13T00:56:46.362Z,10.4
2022-10-13T01:00:51.288Z,10.4
2022-10-13T01:04:46.669Z,10.4
2022-10-13T01:08:47.084Z,10.4
2022-10-13T01:12:46.978Z,10.4
2022-10-13T01:16:46.398Z,10.4
2022-10-13T01:20:46.916Z,10.4
2022-10-13T01:24:46.316Z,10.4
2022-10-13T01:28:47.108Z,10.4
2022-10-13T01:32:47.039Z,10.4
2022-10-13T01:36:46.963Z,10.4
2022-10-13T01:40:46.294Z,10.4
2022-10-13T01:44:47.223Z,10.4
2022-10-13T01:48:46.639Z,10.4
2022-10-13T01:52:47.200Z,10.4
2022-10-13T01:56:46.876Z,10.4
2022-10-13T02:00:49.833Z,10.4
2022-10-13T02:04:46.840Z,10.4
2022-10-13T02:08:46.923Z,10.4
2022-10-13T02:12:47.135Z,10.4
2022-10-13T02:16:46.305Z,10.4
2022-10-13T02:20:46.698Z,10.4
2022-10-13T02:24:46.336Z,10.4
2022-10-13T02:28:47.361Z,10.4
2022-10-13T02:32:46.675Z,10.4
2022-10-13T02:36:46.950Z,10.4
2022-10-13T02:40:46.284Z,10.4
2022-10-13T02:44:46.320Z,10.4
2022-10-13T02:48:46.850Z,10.4
2022-10-13T02:52:47.101Z,10.4
2022-10-13T02:56:46.334Z,10.4
2022-10-13T03:00:49.447Z,10.4
2022-10-13T03:04:46.348Z,10.4
2022-10-13T03:08:46.572Z,10.4
2022-10-13T03:12:47.026Z,10.4
2022-10-13T03:16:46.916Z,10.4
2022-10-13T03:20:46.700Z,10.4
2022-10-13T03:24:46.718Z,10.4
2022-10-13T03:28:46.629Z,10.4
2022-10-13T03:32:46.715Z,10.4
2022-10-13T03:36:47.152Z,10.4
2022-10-13T03:40:46.250Z,10.4
2022-10-13T03:44:46.863Z,10.4
2022-10-13T03:48:46.691Z,10.4
2022-10-13T03:52:46.776Z,10.4
2022-10-13T03:56:46.251Z,10.4
2022-10-13T04:00:49.876Z,10.4
2022-10-13T04:04:46.205Z,10.4
2022-10-13T04:08:46.341Z,10.4
2022-10-13T04:12:53.497Z,10.4
2022-10-13T04:16:46.836Z,10.4
2022-10-13T04:20:47.184Z,10.4
2022-10-13T04:24:46.262Z,10.4
2022-10-13T04:28:46.985Z,10.4
2022-10-13T04:32:46.375Z,10.4
2022-10-13T04:36:46.658Z,10.4
2022-10-13T04:40:46.833Z,10.4
2022-10-13T04:44:46.233Z,10.4
2022-10-13T04:48:46.293Z,10.4
2022-10-13T04:52:46.944Z,10.4
2022-10-13T04:56:46.789Z,10.4
2022-10-13T05:00:49.885Z,10.4
2022-10-13T05:04:46.886Z,10.4
2022-10-13T05:08:47.073Z,10.4
2022-10-13T05:12:46.676Z,10.4
2022-10-13T05:16:46.793Z,10.4
2022-10-13T05:20:46.971Z,10.4
2022-10-13T05:24:47.184Z,10.4
2022-10-13T05:28:47.703Z,10.4
2022-10-13T05:32:51.465Z,10.4
2022-10-13T05:36:46.179Z,10.4
2022-10-13T05:40:46.543Z,10.4
2022-10-13T05:44:47.153Z,10.4
2022-10-13T05:48:46.247Z,10.4
2022-10-13T05:52:46.383Z,10.4
2022-10-13T05:56:46.724Z,10.4
2022-10-13T06:00:46.395Z,10.4
2022-10-13T06:04:46.307Z,10.4
2022-10-13T06:08:46.343Z,10.4
2022-10-13T06:12:46.745Z,10.4
2022-10-13T06:16:47.007Z,10.4
2022-10-13T06:20:46.812Z,10.4
2022-10-13T06:24:46.385Z,10.4
2022-10-13T06:28:49.843Z,10.4
2022-10-13T06:32:47.113Z,10.4
2022-10-13T06:36:47.179Z,10.4
2022-10-13T06:40:47.272Z,10.4
2022-10-13T06:44:46.355Z,10.4
2022-10-13T06:48:47.057Z,10.4
2022-10-13T06:52:46.528Z,10.4
2022-10-13T06:56:47.096Z,10.4
2022-10-13T07:00:49.547Z,10.4
2022-10-13T07:04:46.669Z,10.4
2022-10-13T07:08:47.233Z,10.4
2022-10-13T07:12:46.318Z,10.4
2022-10-13T07:16:47.085Z,10.4
2022-10-13T07:20:52.271Z,10.4
2022-10-13T07:24:46.412Z,10.4
2022-10-13T07:28:47.000Z,10.4
2022-10-13T07:32:47.255Z,10.4
2022-10-13T07:36:46.200Z,10.4
2022-10-13T07:40:46.550Z,10.4
2022-10-13T07:44:46.497Z,10.4
2022-10-13T07:48:46.256Z,10.4
2022-10-13T07:52:46.451Z,33.65
2022-10-13T07:56:46.316Z,33.65
2022-10-13T08:00:49.344Z,33.65
2022-10-13T08:04:46.409Z,33.65
2022-10-13T08:08:46.338Z,33.65
2022-10-13T08:12:47.272Z,33.65
2022-10-13T08:16:48.770Z,33.65
2022-10-13T08:21:04.236Z,33.65
2022-10-13T08:24:46.482Z,33.65
2022-10-13T08:29:02.790Z,33.65
2022-10-13T08:32:46.471Z,33.65
2022-10-13T08:36:47.139Z,33.65
2022-10-13T08:40:47.086Z,33.65
2022-10-13T08:46:15.300Z,33.65
2022-10-13T08:48:46.889Z,33.65
2022-10-13T08:52:46.481Z,33.65
2022-10-13T08:56:46.425Z,12.28
2022-10-13T09:00:48.953Z,12.28
2022-10-13T09:04:46.345Z,1.4
2022-10-13T09:08:46.834Z,0.95
2022-10-13T09:12:47.156Z,0.95
2022-10-13T09:16:46.648Z,0.84
2022-10-13T09:20:47.036Z,0.84
2022-10-13T09:24:46.689Z,0.84
2022-10-13T09:28:47.480Z,0.84
2022-10-13T09:32:46.964Z,0.84
2022-10-13T09:36:46.257Z,0.84
2022-10-13T09:40:46.863Z,0.84
2022-10-13T09:44:50.294Z,0.84
2022-10-13T09:48:46.900Z,0.84
2022-10-13T09:52:46.800Z,0.84
2022-10-13T09:56:46.373Z,0.84
2022-10-13T10:00:49.721Z,0.84
2022-10-13T10:04:47.077Z,0.84
2022-10-13T10:09:14.265Z,0.84
2022-10-13T10:12:50.433Z,0.84
2022-10-13T10:16:46.860Z,0.84
2022-10-13T10:20:46.917Z,27.93
2022-10-13T10:24:46.686Z,7.81
2022-10-13T10:28:46.942Z,1.17
2022-10-13T10:32:46.940Z,0.89
2022-10-13T10:36:47.207Z,0.89
2022-10-13T10:40:46.476Z,0.79
2022-10-13T10:48:46.813Z,0.79
2022-10-13T10:52:46.532Z,0.79
2022-10-13T10:56:46.881Z,0.79
2022-10-13T11:00:50.168Z,0.79
2022-10-13T11:04:47.097Z,0.79
2022-10-13T11:08:46.539Z,0.79
2022-10-13T11:12:47.363Z,0.79
2022-10-13T11:16:47.406Z,0.79
2022-10-13T11:20:47.305Z,0.79
2022-10-13T11:24:47.466Z,0.79
2022-10-13T11:28:47.398Z,0.79
2022-10-13T11:32:46.405Z,0.79
2022-10-13T11:36:46.311Z,0.79
2022-10-13T11:40:46.267Z,0.79
2022-10-13T11:44:47.077Z,0.79
2022-10-13T11:48:46.683Z,6.75
2022-10-13T11:52:46.589Z,6.75
2022-10-13T11:56:50.950Z,6.75
2022-10-13T12:00:53.751Z,6.75
2022-10-13T12:04:46.930Z,6.75
2022-10-13T12:08:46.926Z,6.75
2022-10-13T12:12:46.758Z,6.75
2022-10-13T12:16:46.901Z,6.75
2022-10-13T12:20:46.752Z,6.75
2022-10-13T12:24:47.071Z,6.75
2022-10-13T12:28:46.897Z,6.75
2022-10-13T12:32:47.218Z,6.75
2022-10-13T12:36:46.608Z,6.75
2022-10-13T12:40:46.613Z,6.75
2022-10-13T12:44:51.750Z,6.75
2022-10-13T12:48:47.047Z,6.75
2022-10-13T12:52:46.748Z,6.75
2022-10-13T12:56:46.340Z,6.75
2022-10-13T13:00:49.303Z,6.75
2022-10-13T13:04:46.291Z,6.75
2022-10-13T13:08:46.401Z,6.75
2022-10-13T13:12:46.442Z,6.75
2022-10-13T13:16:47.139Z,6.75
2022-10-13T13:20:46.610Z,6.75
2022-10-13T13:25:13.408Z,6.75
2022-10-13T13:28:46.954Z,6.75
2022-10-13T13:32:46.751Z,6.75
2022-10-13T13:36:47.026Z,6.75
2022-10-13T13:40:46.888Z,6.75
2022-10-13T13:44:46.379Z,6.75
2022-10-13T13:48:46.661Z,6.75
2022-10-13T13:52:46.437Z,56.49
2022-10-13T13:56:46.934Z,14.05
2022-10-13T14:00:51.091Z,1.23
2022-10-13T14:04:46.890Z,0.89
2022-10-13T14:08:47.146Z,0.89
2022-10-13T14:12:46.438Z,0.79
2022-10-13T14:16:46.413Z,0.74
2022-10-13T14:20:47.267Z,0.74
2022-10-13T14:24:46.891Z,0.68
2022-10-13T14:28:52.287Z,0.68
2022-10-13T14:32:46.928Z,0.68
2022-10-13T14:36:46.686Z,0.68
2022-10-13T14:40:46.949Z,0.68
2022-10-13T14:44:46.533Z,0.63
2022-10-13T14:48:47.466Z,0.63
2022-10-13T14:52:47.050Z,0.63
2022-10-13T14:56:46.306Z,0.68
2022-10-13T15:00:49.297Z,0.63
2022-10-13T15:04:47.203Z,0.63
2022-10-13T15:08:46.647Z,0.63
2022-10-13T15:12:46.726Z,0.63
2022-10-13T15:16:46.399Z,0.63
2022-10-13T15:20:46.799Z,0.63
2022-10-13T15:24:46.390Z,0.63
2022-10-13T15:28:47.033Z,0.63
2022-10-13T15:32:47.559Z,0.63
2022-10-13T15:36:46.701Z,0.63
2022-10-13T15:40:46.839Z,0.63
2022-10-13T15:45:20.432Z,0.63
2022-10-13T15:48:47.046Z,0.63
2022-10-13T15:52:47.614Z,0.63
2022-10-13T15:56:46.979Z,0.63
2022-10-13T16:00:49.369Z,0.63
2022-10-13T16:04:49.057Z,0.63
2022-10-13T16:08:46.649Z,0.63
2022-10-13T16:12:49.632Z,0.63
2022-10-13T16:16:46.317Z,0.63
2022-10-13T16:20:46.393Z,0.63
2022-10-13T16:24:46.767Z,0.63
2022-10-13T16:28:46.831Z,0.63
2022-10-13T16:32:46.593Z,0.63
2022-10-13T16:36:47.047Z,0.63
2022-10-13T16:40:46.683Z,0.63
2022-10-13T16:44:46.918Z,0.63
2022-10-13T16:48:46.994Z,0.63
2022-10-13T16:52:47.118Z,0.63
2022-10-13T16:56:47.166Z,0.63
2022-10-13T17:00:51.801Z,0.63
2022-10-13T17:04:50.206Z,0.63
2022-10-13T17:08:46.944Z,0.63
2022-10-13T17:12:46.868Z,0.63
2022-10-13T17:16:46.618Z,0.63
2022-10-13T17:20:47.065Z,0.63
2022-10-13T17:24:47.363Z,0.63
2022-10-13T17:28:46.992Z,0.63
2022-10-13T17:32:47.004Z,0.63
2022-10-13T17:36:46.421Z,0.63
2022-10-13T17:40:46.575Z,0.63
2022-10-13T17:44:47.188Z,0.63
2022-10-13T17:48:48.795Z,0.63
2022-10-13T17:52:46.467Z,0.63
2022-10-13T17:56:46.942Z,0.63
2022-10-13T18:01:22.926Z,0.63
2022-10-13T18:04:46.908Z,0.63
2022-10-13T18:08:47.203Z,0.63
2022-10-13T18:12:46.889Z,0.63
2022-10-13T18:16:47.056Z,0.63
2022-10-13T18:20:46.979Z,0.63
2022-10-13T18:24:46.519Z,0.63
2022-10-13T18:28:47.451Z,0.63
2022-10-13T18:32:46.853Z,0.63
2022-10-13T18:36:46.676Z,0.63
2022-10-13T18:40:46.588Z,0.63
2022-10-13T18:44:46.926Z,0.63
2022-10-13T18:48:46.877Z,0.63
2022-10-13T18:52:47.196Z,0.63
2022-10-13T18:56:47.189Z,0.63
2022-10-13T19:00:49.451Z,0.63
2022-10-13T19:04:46.997Z,0.63
2022-10-13T19:08:46.310Z,0.63
2022-10-13T19:12:46.640Z,0.63
2022-10-13T19:16:47.245Z,0.63
2022-10-13T19:20:46.953Z,0.63
2022-10-13T19:24:46.376Z,0.63
2022-10-13T19:28:47.100Z,0.63
2022-10-13T19:32:46.847Z,0.63
2022-10-13T19:36:47.261Z,0.63
2022-10-13T19:40:53.412Z,0.63
2022-10-13T19:44:46.486Z,0.63
2022-10-13T19:48:47.134Z,0.63
2022-10-13T19:52:47.083Z,0.63
2022-10-13T19:56:46.897Z,0.63
2022-10-13T20:00:50.142Z,0.63
2022-10-13T20:04:46.737Z,0.63
2022-10-13T20:08:47.118Z,0.63
2022-10-13T20:12:47.120Z,0.63
2022-10-13T20:16:46.894Z,0.63
2022-10-13T20:20:46.468Z,0.63
2022-10-13T20:24:46.418Z,0.63
2022-10-13T20:28:53.981Z,0.63
2022-10-13T20:32:47.049Z,0.63
2022-10-13T20:36:50.501Z,0.63
2022-10-13T20:40:47.055Z,0.63
2022-10-13T20:44:47.210Z,0.63
2022-10-13T20:49:16.719Z,0.63
2022-10-13T20:52:46.281Z,0.63
2022-10-13T20:56:47.113Z,0.63
2022-10-13T21:00:49.572Z,0.63
2022-10-13T21:04:46.786Z,0.63
2022-10-13T21:08:47.077Z,0.63
2022-10-13T21:12:47.089Z,0.63
2022-10-13T21:16:46.985Z,0.63
2022-10-13T21:20:46.507Z,0.63
2022-10-13T21:24:46.239Z,0.63
2022-10-13T21:28:47.479Z,0.63
2022-10-13T21:32:46.849Z,0.63
2022-10-13T21:36:46.979Z,0.63
2022-10-13T21:40:51.631Z,0.63
2022-10-13T21:44:46.688Z,0.63
2022-10-13T21:48:46.356Z,0.63
2022-10-13T21:52:46.695Z,0.63
2022-10-13T21:56:46.603Z,0.63
2022-10-13T22:00:56.742Z,0.63
2022-10-13T22:12:47.302Z,0.63
2022-10-13T22:14:47.048Z,0.63
2022-10-13T22:16:47.081Z,0.63
2022-10-13T22:18:46.481Z,0.63
2022-10-13T22:20:46.659Z,0.63
2022-10-13T22:22:53.264Z,0.63
2022-10-13T22:24:46.991Z,0.63
2022-10-13T22:26:47.018Z,0.63
2022-10-13T22:28:49.048Z,0.63
2022-10-13T22:30:46.909Z,0.63
2022-10-13T22:32:46.942Z,0.63
2022-10-13T22:34:46.865Z,0.63
2022-10-13T22:36:47.136Z,0.63
2022-10-13T22:38:46.368Z,0.63
2022-10-13T22:40:47.239Z,0.63
2022-10-13T22:42:46.999Z,0.63
2022-10-13T22:44:46.914Z,0.63
2022-10-13T22:46:47.311Z,0.63
2022-10-13T22:48:51.950Z,0.63
2022-10-13T22:50:48.346Z,0.63
2022-10-13T22:52:46.921Z,0.63
2022-10-13T22:54:46.635Z,0.63
2022-10-13T22:56:46.690Z,0.63
2022-10-13T22:58:47.047Z,0.63
2022-10-13T23:00:49.792Z,0.63
2022-10-13T23:02:46.626Z,0.63
2022-10-13T23:04:46.583Z,0.63
2022-10-13T23:06:47.164Z,0.63
2022-10-13T23:08:47.036Z,0.63
2022-10-13T23:10:46.360Z,0.63
2022-10-13T23:12:46.934Z,0.63
2022-10-13T23:14:46.815Z,0.63
2022-10-13T23:16:47.297Z,0.63
2022-10-13T23:18:46.583Z,0.63
2022-10-13T23:20:46.738Z,0.63
2022-10-13T23:22:46.265Z,0.63
2022-10-13T23:24:46.987Z,0.63
2022-10-13T23:26:46.818Z,0.63
2022-10-13T23:28:47.504Z,0.63
2022-10-13T23:30:46.741Z,0.63
2022-10-13T23:32:52.529Z,0.63
2022-10-13T23:34:46.320Z,0.63
2022-10-13T23:36:46.569Z,0.63
2022-10-13T23:38:46.770Z,0.63
2022-10-13T23:40:47.088Z,0.63
2022-10-13T23:42:47.242Z,0.63
2022-10-13T23:44:46.967Z,0.63
2022-10-13T23:46:46.275Z,0.63
2022-10-13T23:48:46.831Z,0.63
2022-10-13T23:50:46.422Z,0.63
2022-10-13T23:52:46.920Z,0.63
2022-10-13T23:54:47.088Z,0.63
2022-10-13T23:56:46.501Z,0.63
2022-10-13T23:58:46.942Z,0.63
